Time;durP1;ratioP1;P1;durP2;ratioP2;P2;SDS_P1;SDS_P2;PMS_P1;PMS_P2;Temp;Humidity;BMP_temperature;BMP_pressure;BME280_temperature;BME280_humidity;BME280_pressure;Samples;Min_cycle;Max_cycle;Signal;HPM_P1;HPM_P2
2022/11/17 00:02:10;;;;;;;8.40;1.50;;;;;;;9.37;100.00;97827.38;5065474;28;20056;-77
2022/11/17 00:04:35;;;;;;;6.13;0.90;;;;;;;9.33;100.00;97811.81;5076880;28;20027;-76
2022/11/17 00:07:00;;;;;;;9.18;1.00;;;;;;;9.32;100.00;97824.06;5076748;28;20028;-76
2022/11/17 00:09:26;;;;;;;5.63;0.90;;;;;;;9.28;100.00;97840.56;5076662;28;20028;-77
2022/11/17 00:14:36;;;;;;;6.25;0.80;;;;;;;9.25;100.00;97855.13;5067787;28;20528;-77
2022/11/17 00:17:03;;;;;;;6.88;0.95;;;;;;;9.23;100.00;97848.31;5060034;28;20024;-77
2022/11/17 00:22:12;;;;;;;6.78;0.90;;;;;;;9.22;100.00;97857.78;5077986;28;20085;-76
2022/11/17 00:24:37;;;;;;;9.77;1.25;;;;;;;9.18;100.00;97861.25;5077637;28;20040;-76
2022/11/17 00:27:03;;;;;;;5.95;0.95;;;;;;;9.18;100.00;97869.53;5077342;28;20040;-76
2022/11/17 00:29:29;;;;;;;5.50;0.98;;;;;;;9.21;100.00;97875.56;5077653;28;20586;-77
2022/11/17 00:34:38;;;;;;;7.35;1.05;;;;;;;9.21;100.00;97890.19;5076405;28;20082;-76
2022/11/17 00:37:04;;;;;;;5.90;1.15;;;;;;;9.21;100.00;97892.97;5059908;28;20033;-77
2022/11/17 00:39:29;;;;;;;8.98;0.90;;;;;;;9.22;100.00;97894.59;5042350;28;20116;-76
2022/11/17 00:41:55;;;;;;;8.07;0.98;;;;;;;9.21;100.00;97884.66;5057405;28;20048;-76
2022/11/17 00:44:21;;;;;;;8.90;1.00;;;;;;;9.22;100.00;97891.00;5042819;28;20034;-76
2022/11/17 00:46:47;;;;;;;6.55;1.00;;;;;;;9.22;100.00;97888.22;5059551;28;20384;-76
2022/11/17 00:49:13;;;;;;;7.70;1.27;;;;;;;9.22;100.00;97879.94;5056856;28;20225;-76
2022/11/17 00:51:39;;;;;;;10.50;1.35;;;;;;;9.22;100.00;97888.22;5071988;28;20041;-77
2022/11/17 00:54:04;;;;;;;6.43;1.00;;;;;;;9.19;100.00;97898.03;5109235;28;20052;-76
2022/11/17 00:56:30;;;;;;;4.07;0.68;;;;;;;9.17;100.00;97912.25;5076974;28;20063;-76
2022/11/17 00:58:55;;;;;;;8.98;1.50;;;;;;;9.16;100.00;97910.66;5109736;28;20610;-76
2022/11/17 01:01:21;;;;;;;8.85;1.20;;;;;;;9.14;100.00;97924.03;5092168;28;20028;-76
2022/11/17 01:31:29;;;;;;;13.10;2.03;;;;;;;8.75;100.00;97952.38;5083711;28;20063;-77
2022/11/17 01:33:54;;;;;;;13.32;2.15;;;;;;;8.77;100.00;97950.06;5075048;28;20081;-77
2022/11/17 01:36:28;;;;;;;15.57;2.05;;;;;;;8.76;100.00;97949.28;5058601;28;20465;-77
2022/11/17 01:38:54;;;;;;;12.98;1.80;;;;;;;8.74;100.00;97951.56;5091237;28;20039;-77
2022/11/17 01:41:21;;;;;;;13.65;2.47;;;;;;;8.75;100.00;97955.13;5057658;28;20025;-76
2022/11/17 01:43:56;;;;;;;12.77;1.83;;;;;;;8.73;100.00;97953.53;5091612;28;20032;-76
2022/11/17 01:46:24;;;;;;;12.63;1.80;;;;;;;8.74;100.00;97962.63;5067112;28;20028;-77
2022/11/17 01:48:50;;;;;;;9.95;1.70;;;;;;;8.74;100.00;97970.94;5091702;28;20542;-76
2022/11/17 01:51:16;;;;;;;10.02;2.40;;;;;;;8.76;100.00;97970.63;5090746;28;20048;-76
2022/11/17 01:53:44;;;;;;;15.48;1.75;;;;;;;8.77;100.00;97980.53;5091814;28;20043;-76
2022/11/17 01:56:11;;;;;;;16.05;1.65;;;;;;;8.75;100.00;97989.19;5038880;28;20024;-76
2022/11/17 01:58:40;;;;;;;12.55;1.70;;;;;;;8.78;100.00;97980.19;5068162;28;20035;-77
2022/11/17 02:01:05;;;;;;;14.90;2.22;;;;;;;8.77;100.00;97978.56;5073414;28;20027;-76
2022/11/17 02:03:33;;;;;;;19.55;2.45;;;;;;;8.78;100.00;97980.19;5057603;28;20660;-76
2022/11/17 02:06:10;;;;;;;19.80;2.33;;;;;;;8.80;100.00;97985.38;5074666;28;20540;-76
2022/11/17 02:08:36;;;;;;;19.92;3.03;;;;;;;8.83;100.00;97979.13;5074659;28;20056;-77
2022/11/17 02:11:02;;;;;;;19.30;2.38;;;;;;;8.84;100.00;97994.59;5074850;28;20479;-76
2022/11/17 02:13:28;;;;;;;23.45;2.65;;;;;;;8.83;100.00;98004.03;5057144;28;20052;-77
2022/11/17 02:15:53;;;;;;;18.33;2.83;;;;;;;8.86;100.00;97993.13;5064242;28;20521;-77
2022/11/17 02:18:19;;;;;;;17.90;2.95;;;;;;;8.87;100.00;98005.78;5070986;28;20029;-77
2022/11/17 02:21:09;;;;;;;17.85;2.45;;;;;;;8.86;100.00;98014.44;5073693;28;20028;-76
2022/11/17 02:23:56;;;;;;;16.83;2.83;;;;;;;8.88;100.00;98020.44;5075399;28;20037;-76
2022/11/17 02:26:40;;;;;;;20.40;2.47;;;;;;;8.87;100.00;98016.88;5074378;28;20101;-77
2022/11/17 02:29:13;;;;;;;23.60;2.90;;;;;;;8.88;100.00;98025.97;5074419;28;20044;-77
2022/11/17 02:32:02;;;;;;;14.38;2.75;;;;;;;8.89;100.00;98033.16;5089704;28;20025;-76
2022/11/17 02:34:50;;;;;;;22.35;2.95;;;;;;;8.87;100.00;98036.25;5054612;28;20044;-76
2022/11/17 02:37:17;;;;;;;19.88;2.40;;;;;;;8.88;100.00;98037.03;5071912;28;20024;-76
2022/11/17 02:39:50;;;;;;;20.55;2.95;;;;;;;8.89;100.00;98038.69;5057001;28;20074;-77
2022/11/17 02:44:02;;;;;;;15.85;2.45;;;;;;;8.89;100.00;98039.47;5087636;28;20570;-76
2022/11/17 02:45:10;;;;;;;18.38;2.58;;;;;;;8.90;100.00;98031.97;5053850;28;20116;-77
2022/11/17 02:47:36;;;;;;;15.32;2.50;;;;;;;8.91;100.00;98039.13;5090761;28;20397;-77
2022/11/17 02:50:04;;;;;;;19.63;2.90;;;;;;;8.89;100.00;98047.78;5024285;28;20024;-77
2022/11/17 02:52:30;;;;;;;18.45;3.13;;;;;;;8.92;100.00;98057.38;5040106;28;20036;-77
2022/11/17 02:55:03;;;;;;;18.80;3.50;;;;;;;8.90;100.00;98062.44;5057375;28;20059;-78
2022/11/17 02:57:32;;;;;;;19.63;2.70;;;;;;;8.91;100.00;98070.41;5073962;28;20028;-77
2022/11/17 03:00:06;;;;;;;18.00;3.10;;;;;;;8.91;100.00;98070.41;5075416;28;20028;-77
2022/11/17 03:02:31;;;;;;;22.58;2.85;;;;;;;8.92;100.00;98071.22;5057630;28;20047;-77
2022/11/17 03:05:26;;;;;;;21.38;3.20;;;;;;;8.90;100.00;98079.03;5057361;28;20492;-77
2022/11/17 03:08:14;;;;;;;23.02;3.20;;;;;;;8.89;100.00;98077.44;5066106;28;20039;-76
2022/11/17 03:10:50;;;;;;;21.75;2.90;;;;;;;8.85;100.00;98076.47;5056366;28;20632;-76
2022/11/17 03:13:34;;;;;;;25.75;3.17;;;;;;;8.84;100.00;98078.44;5073433;28;20090;-77
2022/11/17 03:16:05;;;;;;;21.10;2.95;;;;;;;8.86;100.00;98083.63;5075249;28;20033;-77
2022/11/17 03:18:38;;;;;;;24.67;3.55;;;;;;;8.82;100.00;98079.94;5073685;28;20032;-77
2022/11/17 03:21:15;;;;;;;20.17;3.00;;;;;;;8.78;100.00;98093.66;5054682;28;20036;-77
2022/11/17 03:23:54;;;;;;;20.10;2.72;;;;;;;8.75;100.00;98097.09;5077887;28;20037;-77
2022/11/17 03:26:34;;;;;;;26.05;4.15;;;;;;;8.73;100.00;98097.44;5083957;28;20032;-77
2022/11/17 03:29:00;;;;;;;21.60;3.38;;;;;;;8.72;100.00;98098.59;5077757;28;20029;-77
2022/11/17 03:31:26;;;;;;;24.27;3.65;;;;;;;8.70;100.00;98103.66;5042653;28;20428;-77
2022/11/17 03:33:52;;;;;;;25.38;3.90;;;;;;;8.68;100.00;98110.66;5085440;28;20029;-77
2022/11/17 03:36:20;;;;;;;18.23;4.00;;;;;;;8.65;100.00;98106.63;5077570;28;20025;-77
2022/11/17 03:38:50;;;;;;;18.02;3.42;;;;;;;8.66;100.00;98105.50;5060590;28;20058;-77
2022/11/17 03:41:16;;;;;;;20.13;2.85;;;;;;;8.64;100.00;98110.56;5059912;28;20078;-77
2022/11/17 03:43:42;;;;;;;14.13;3.10;;;;;;;8.64;100.00;98105.03;5076974;28;20431;-77
2022/11/17 03:46:12;;;;;;;19.70;3.13;;;;;;;8.62;100.00;98118.38;5060338;28;20020;-77
2022/11/17 03:48:42;;;;;;;19.25;3.30;;;;;;;8.66;100.00;98110.19;5040901;28;20060;-77
2022/11/17 03:51:16;;;;;;;13.25;2.70;;;;;;;8.65;100.00;98120.47;5072240;28;20497;-77
2022/11/17 03:53:41;;;;;;;14.10;2.60;;;;;;;8.66;100.00;98118.50;5076947;28;20559;-77
2022/11/17 03:56:15;;;;;;;22.13;2.83;;;;;;;8.67;100.00;98118.16;5060322;28;20037;-77
2022/11/17 03:59:19;;;;;;;22.10;3.17;;;;;;;8.66;100.00;98124.88;5077009;28;20032;-77
2022/11/17 04:01:44;;;;;;;;;;;;;;;8.68;100.00;98117.00;5057094;28;20021;-77
2022/11/17 04:04:17;;;;;;;13.07;2.30;;;;;;;8.68;100.00;98132.81;5072969;28;19912;-77
2022/11/17 04:06:43;;;;;;;14.10;2.42;;;;;;;8.71;100.00;98132.94;5060910;28;20039;-77
2022/11/17 04:09:08;;;;;;;9.10;1.98;;;;;;;8.75;100.00;98137.78;5060276;28;20028;-77
2022/11/17 04:17:02;;;;;;;11.98;2.78;;;;;;;8.75;100.00;98144.16;5076838;28;20039;-77
2022/11/17 04:19:27;;;;;;;10.80;2.58;;;;;;;8.79;100.00;98138.75;5039084;28;20493;-77
2022/11/17 04:21:53;;;;;;;9.18;2.20;;;;;;;8.79;100.00;98147.03;5076015;28;20043;-77
2022/11/17 04:24:18;;;;;;;9.05;2.30;;;;;;;8.81;100.00;98147.53;5059867;28;20036;-78
2022/11/17 04:29:47;;;;;;;11.25;1.95;;;;;;;8.78;100.00;98137.94;5015141;28;20040;-77
2022/11/17 04:32:13;;;;;;;5.53;1.88;;;;;;;8.80;100.00;98134.81;4998586;28;20038;-77
2022/11/17 04:34:41;;;;;;;6.65;2.08;;;;;;;8.77;100.00;98133.53;5010020;28;20051;-78
2022/11/17 04:37:16;;;;;;;5.05;2.00;;;;;;;8.76;100.00;98128.34;5043113;28;20025;-78
2022/11/17 04:39:42;;;;;;;11.27;2.10;;;;;;;8.72;100.00;98139.31;5078702;28;20032;-77
2022/11/17 04:42:07;;;;;;;6.30;1.88;;;;;;;8.70;100.00;98139.63;5039326;28;20037;-78
2022/11/17 04:44:33;;;;;;;4.32;1.70;;;;;;;8.73;100.00;98147.25;5075030;28;20166;-77
2022/11/17 04:47:00;;;;;;;7.35;2.10;;;;;;;8.69;100.00;98139.94;5059025;28;20373;-78
2022/11/17 04:49:26;;;;;;;8.55;2.20;;;;;;;8.65;100.00;98150.91;5043682;28;20028;-77
2022/11/17 04:51:52;;;;;;;10.98;2.55;;;;;;;8.65;100.00;98150.91;5083303;28;20380;-77
2022/11/17 04:54:20;;;;;;;8.93;2.05;;;;;;;8.61;100.00;98149.13;5075494;28;20031;-77
2022/11/17 04:56:45;;;;;;;8.25;2.13;;;;;;;8.58;100.00;98138.75;5075918;28;20082;-77
2022/11/17 04:59:11;;;;;;;5.70;1.80;;;;;;;8.58;100.00;98134.03;5059388;28;20032;-77
2022/11/17 05:01:36;;;;;;;10.02;1.88;;;;;;;8.57;100.00;98150.97;5071853;28;20035;-78
2022/11/17 05:04:04;;;;;;;9.32;1.60;;;;;;;8.53;100.00;98145.31;5059191;28;20541;-77
2022/11/17 05:06:47;;;;;;;10.63;2.40;;;;;;;8.48;100.00;98143.56;5059215;28;20103;-77
2022/11/17 05:09:15;;;;;;;7.70;1.90;;;;;;;8.48;100.00;98146.31;5063522;28;20363;-77
2022/11/17 05:14:24;;;;;;;9.68;1.95;;;;;;;8.46;100.00;98150.56;5070591;28;20047;-77
2022/11/17 05:17:08;;;;;;;9.20;1.92;;;;;;;8.44;100.00;98150.09;5055751;28;20475;-77
2022/11/17 05:19:36;;;;;;;;;;;;;;;8.45;100.00;98146.19;5076116;28;20077;-77
2022/11/17 05:22:01;;;;;;;10.07;2.17;;;;;;;8.40;100.00;98144.44;5081568;28;19982;-77
2022/11/17 05:24:27;;;;;;;13.88;2.40;;;;;;;8.42;100.00;98155.16;5051875;28;20029;-77
2022/11/17 05:26:52;;;;;;;16.45;2.47;;;;;;;8.41;100.00;98153.53;5057916;28;20028;-77
2022/11/17 05:29:19;;;;;;;11.38;2.03;;;;;;;8.38;100.00;98152.22;5025602;28;20123;-77
2022/11/17 05:31:45;;;;;;;11.40;1.85;;;;;;;8.40;100.00;98161.03;5050695;28;20025;-77
2022/11/17 05:34:11;;;;;;;10.85;2.10;;;;;;;8.37;100.00;98149.81;5041806;28;20077;-77
2022/11/17 05:36:37;;;;;;;10.57;2.13;;;;;;;8.37;100.00;98155.34;5038403;28;20029;-77
2022/11/17 05:39:03;;;;;;;12.80;2.35;;;;;;;8.42;100.00;98152.41;5085657;28;20035;-77
2022/11/17 05:41:28;;;;;;;13.57;2.65;;;;;;;8.40;100.00;98154.69;5057781;28;20037;-78
2022/11/17 05:43:54;;;;;;;9.55;2.20;;;;;;;8.41;100.00;98150.75;5058208;28;20048;-77
2022/11/17 05:46:19;;;;;;;11.15;2.63;;;;;;;8.40;100.00;98154.69;5061021;28;20031;-77
2022/11/17 05:48:46;;;;;;;16.02;2.60;;;;;;;8.40;100.00;98154.69;5038291;28;20170;-77
2022/11/17 05:51:11;;;;;;;13.93;3.20;;;;;;;8.41;100.00;98167.34;5055815;28;20043;-77
2022/11/17 05:53:37;;;;;;;17.75;3.50;;;;;;;8.42;100.00;98152.41;5057739;28;20040;-78
2022/11/17 05:56:23;;;;;;;11.82;2.80;;;;;;;8.42;100.00;98153.19;5057861;28;20106;-77
2022/11/17 05:58:51;;;;;;;18.33;2.83;;;;;;;8.43;100.00;98152.03;5058060;28;20032;-78
2022/11/17 06:01:17;;;;;;;13.90;3.58;;;;;;;8.43;100.00;98149.28;5057714;28;20414;-78
2022/11/17 06:03:46;;;;;;;9.75;3.00;;;;;;;8.46;100.00;98147.81;5057937;28;20032;-78
2022/11/17 06:06:12;;;;;;;14.05;3.05;;;;;;;8.46;100.00;98153.34;5074790;28;20029;-78
2022/11/17 06:08:37;;;;;;;13.07;4.15;;;;;;;8.46;100.00;98147.81;5057949;28;20028;-77
2022/11/17 06:11:03;;;;;;;15.93;3.38;;;;;;;8.43;100.00;98149.28;5041016;28;20043;-78
2022/11/17 06:13:29;;;;;;;19.77;3.72;;;;;;;8.41;100.00;98139.69;5074551;28;20028;-77
2022/11/17 06:15:54;;;;;;;18.83;3.55;;;;;;;8.40;100.00;98140.84;5074400;28;20036;-77
2022/11/17 06:18:25;;;;;;;17.38;3.55;;;;;;;8.34;100.00;98133.88;5040968;28;20020;-77
2022/11/17 06:20:52;;;;;;;16.98;3.97;;;;;;;8.34;100.00;98136.66;5097320;28;20040;-78
2022/11/17 06:23:18;;;;;;;17.58;3.53;;;;;;;8.33;100.00;98146.06;5072500;28;20443;-77
2022/11/17 06:25:44;;;;;;;16.98;3.45;;;;;;;8.27;100.00;98145.47;5029300;28;20468;-76
2022/11/17 06:28:13;;;;;;;18.80;3.20;;;;;;;8.28;100.00;98149.88;5055143;28;20094;-77
2022/11/17 06:30:39;;;;;;;22.13;3.78;;;;;;;8.23;100.00;98145.34;5065957;28;20105;-76
2022/11/17 06:33:06;;;;;;;15.20;3.40;;;;;;;8.20;100.00;98151.53;5074071;28;20032;-77
2022/11/17 06:35:33;;;;;;;13.35;2.70;;;;;;;8.16;100.00;98156.13;5058146;28;20544;-77
2022/11/17 06:37:59;;;;;;;16.23;3.42;;;;;;;8.14;100.00;98152.88;5041025;28;20488;-77
2022/11/17 06:40:25;;;;;;;15.18;2.60;;;;;;;8.09;100.00;98153.06;5037433;28;20048;-77
2022/11/17 06:43:02;;;;;;;15.98;3.30;;;;;;;8.07;100.00;98152.59;5039663;28;20036;-77
2022/11/17 06:45:38;;;;;;;13.35;2.60;;;;;;;7.98;100.00;98154.63;5072880;28;20037;-78
2022/11/17 06:48:04;;;;;;;15.68;2.90;;;;;;;7.95;100.00;98155.28;5074361;28;20048;-77
2022/11/17 06:50:29;;;;;;;18.90;3.40;;;;;;;7.91;100.00;98157.06;5073618;28;20075;-77
2022/11/17 06:52:56;;;;;;;14.70;2.58;;;;;;;7.83;100.00;98159.56;5073792;28;20033;-77
2022/11/17 06:55:22;;;;;;;20.00;2.53;;;;;;;7.75;100.00;98163.19;5057572;28;20060;-77
2022/11/17 06:57:47;;;;;;;13.15;3.15;;;;;;;7.74;100.00;98161.56;5057048;28;20550;-77
2022/11/17 07:00:13;;;;;;;13.30;2.80;;;;;;;7.73;100.00;98167.41;5053796;28;20539;-77
2022/11/17 07:02:39;;;;;;;14.90;2.72;;;;;;;7.68;100.00;98162.09;5049067;28;20037;-77
2022/11/17 07:05:04;;;;;;;21.77;3.38;;;;;;;7.61;100.00;98176.41;5044836;28;20074;-76
2022/11/17 07:07:30;;;;;;;12.25;2.30;;;;;;;7.57;100.00;98173.50;5057803;28;20051;-77
2022/11/17 07:09:55;;;;;;;14.27;2.63;;;;;;;7.57;100.00;98172.69;5057537;28;20033;-77
2022/11/17 07:12:21;;;;;;;16.27;2.72;;;;;;;7.54;100.00;98165.06;5044556;28;20033;-77
2022/11/17 07:14:46;;;;;;;16.95;2.63;;;;;;;7.50;100.00;98173.22;5067281;28;20384;-77
2022/11/17 07:17:12;;;;;;;12.82;2.20;;;;;;;7.48;100.00;98177.44;5070546;28;20025;-77
2022/11/17 07:19:37;;;;;;;19.13;2.67;;;;;;;7.47;100.00;98186.88;5071692;28;20439;-79
2022/11/17 07:22:03;;;;;;;17.95;2.63;;;;;;;7.42;100.00;98187.84;5061968;28;20245;-77
2022/11/17 07:24:28;;;;;;;18.92;2.50;;;;;;;7.41;100.00;98190.94;5082767;28;20066;-78
2022/11/17 07:26:53;;;;;;;14.57;2.58;;;;;;;7.37;100.00;98191.59;5077309;28;20037;-78
2022/11/17 07:29:19;;;;;;;15.15;2.45;;;;;;;7.37;100.00;98199.06;5044449;28;20028;-77
2022/11/17 07:31:44;;;;;;;15.05;2.70;;;;;;;7.35;100.00;98202.19;5077851;28;20082;-77
2022/11/17 07:34:10;;;;;;;14.60;2.40;;;;;;;7.32;100.00;98205.56;5061025;28;20044;-76
2022/11/17 07:36:35;;;;;;;15.05;2.20;;;;;;;7.31;100.00;98206.72;5054106;28;20029;-77
2022/11/17 07:39:01;;;;;;;12.48;2.38;;;;;;;7.29;100.00;98205.44;5035086;28;20036;-77
2022/11/17 07:41:26;;;;;;;15.63;2.33;;;;;;;7.28;100.00;98215.66;5060211;28;20052;-76
2022/11/17 07:43:52;;;;;;;9.18;1.63;;;;;;;7.29;100.00;98222.00;5047052;28;20024;-76
2022/11/17 07:46:17;;;;;;;11.20;2.40;;;;;;;7.30;100.00;98218.09;5060309;28;20017;-76
2022/11/17 07:48:43;;;;;;;12.02;2.08;;;;;;;7.28;100.00;98221.19;5060753;28;20082;-77
2022/11/17 07:51:08;;;;;;;16.63;2.53;;;;;;;7.26;100.00;98223.47;5077224;28;20045;-77
2022/11/17 07:53:34;;;;;;;13.95;2.20;;;;;;;7.27;100.00;98227.88;5060035;28;20148;-76
2022/11/17 07:56:03;;;;;;;14.15;2.60;;;;;;;7.27;100.00;98224.25;5060200;28;20032;-77
2022/11/17 07:58:29;;;;;;;10.50;2.30;;;;;;;7.29;100.00;98228.31;5077353;28;20396;-77
2022/11/17 08:00:54;;;;;;;13.30;2.10;;;;;;;7.32;100.00;98229.63;5077044;28;20107;-77
2022/11/17 08:03:20;;;;;;;11.57;1.92;;;;;;;7.37;100.00;98244.06;5047848;28;20051;-77
2022/11/17 08:05:45;;;;;;;9.38;1.77;;;;;;;7.42;100.00;98240.31;5059663;28;20380;-77
2022/11/17 08:08:12;;;;;;;9.50;1.88;;;;;;;7.49;100.00;98248.09;5037328;28;20029;-77
2022/11/17 08:10:37;;;;;;;10.18;1.90;;;;;;;7.53;100.00;98251.84;5076473;28;20029;-77
2022/11/17 08:13:03;;;;;;;12.32;2.17;;;;;;;7.58;100.00;98246.94;5076672;28;20123;-77
2022/11/17 08:15:28;;;;;;;13.70;2.75;;;;;;;7.67;100.00;98249.69;5076123;28;20036;-77
2022/11/17 08:17:55;;;;;;;10.13;1.67;;;;;;;7.75;100.00;98250.81;5077878;28;20025;-77
2022/11/17 08:20:21;;;;;;;10.63;1.90;;;;;;;7.81;100.00;98253.03;5040599;28;20079;-77
2022/11/17 08:22:47;;;;;;;9.77;2.25;;;;;;;7.90;100.00;98257.72;5040278;28;20037;-77
2022/11/17 08:25:13;;;;;;;14.63;2.58;;;;;;;7.97;100.00;98264.38;5076528;28;20021;-77
2022/11/17 08:27:39;;;;;;;11.27;2.13;;;;;;;8.05;100.00;98263.53;5077849;28;20632;-77
2022/11/17 08:30:06;;;;;;;15.60;2.00;;;;;;;8.13;100.00;98263.81;5059448;28;20027;-77
2022/11/17 08:32:32;;;;;;;11.65;2.20;;;;;;;8.23;100.00;98280.81;5040808;28;20052;-77
2022/11/17 08:34:57;;;;;;;13.18;2.10;;;;;;;8.32;100.00;98278.00;5043364;28;20047;-77
2022/11/17 08:37:23;;;;;;;9.70;1.40;;;;;;;8.42;100.00;98276.88;5059645;28;20102;-77
2022/11/17 08:39:48;;;;;;;12.93;1.88;;;;;;;8.51;100.00;98277.63;5074833;28;20031;-77
2022/11/17 08:42:15;;;;;;;14.48;2.30;;;;;;;8.58;100.00;98283.44;5059048;28;20348;-77
2022/11/17 08:44:40;;;;;;;15.88;2.22;;;;;;;8.67;100.00;98280.63;5041571;28;20039;-77
2022/11/17 08:47:06;;;;;;;11.77;1.83;;;;;;;8.76;100.00;98286.91;5042775;28;20411;-77
2022/11/17 08:49:32;;;;;;;12.68;1.58;;;;;;;8.84;100.00;98279.69;5077185;28;20036;-77
2022/11/17 08:51:58;;;;;;;12.32;2.17;;;;;;;8.95;100.00;98275.38;5014434;28;20045;-77
2022/11/17 08:54:23;;;;;;;14.02;2.08;;;;;;;9.04;100.00;98283.59;5075255;28;20089;-77
2022/11/17 08:56:49;;;;;;;18.80;1.90;;;;;;;9.12;100.00;98289.06;5064087;28;20029;-77
2022/11/17 08:59:15;;;;;;;11.00;1.80;;;;;;;9.23;100.00;98291.44;5041287;28;20036;-77
2022/11/17 09:01:40;;;;;;;10.95;1.85;;;;;;;9.33;100.00;98288.22;5075924;28;20025;-77
2022/11/17 09:04:06;;;;;;;17.05;2.25;;;;;;;9.44;100.00;98306.06;5059140;28;20043;-77
2022/11/17 09:06:31;;;;;;;16.02;2.20;;;;;;;9.54;100.00;98297.31;5075626;28;20067;-76
2022/11/17 09:08:57;;;;;;;14.07;2.50;;;;;;;9.68;100.00;98297.03;5075579;28;20036;-77
2022/11/17 09:11:22;;;;;;;12.85;1.88;;;;;;;9.79;100.00;98292.66;5076716;28;20028;-76
2022/11/17 09:13:48;;;;;;;14.65;2.35;;;;;;;9.90;100.00;98295.81;5076811;28;20028;-77
2022/11/17 09:16:14;;;;;;;19.70;2.05;;;;;;;10.02;100.00;98304.13;5058916;28;20043;-77
2022/11/17 09:18:39;;;;;;;14.20;1.95;;;;;;;10.14;100.00;98303.38;5075602;28;20028;-76
2022/11/17 09:21:09;;;;;;;8.75;1.50;;;;;;;10.25;100.00;98306.47;5025901;28;20016;-77
2022/11/17 09:23:35;;;;;;;17.05;2.17;;;;;;;10.37;100.00;98300.19;5058885;28;20028;-77
2022/11/17 09:26:09;;;;;;;11.52;1.80;;;;;;;10.48;100.00;98304.09;5074411;28;20434;-77
2022/11/17 09:28:34;;;;;;;15.63;2.25;;;;;;;10.57;100.00;98296.47;5055760;28;20033;-77
2022/11/17 09:31:08;;;;;;;19.30;2.75;;;;;;;10.67;100.00;98297.94;5069352;28;20448;-77
2022/11/17 09:33:33;;;;;;;11.57;1.88;;;;;;;10.77;100.00;98308.59;5075392;28;20048;-77
2022/11/17 09:35:59;;;;;;;14.65;1.70;;;;;;;10.85;100.00;98304.88;5062233;28;20362;-77
2022/11/17 09:38:24;;;;;;;9.52;1.80;;;;;;;10.96;100.00;98307.97;5076582;28;20024;-77
2022/11/17 09:40:50;;;;;;;18.10;2.03;;;;;;;11.07;100.00;98311.91;5058063;28;20074;-77
2022/11/17 09:43:23;;;;;;;12.45;2.22;;;;;;;11.17;100.00;98316.13;5069423;28;20036;-77
2022/11/17 09:45:49;;;;;;;16.38;2.55;;;;;;;11.26;100.00;98304.91;5073418;28;20028;-77
2022/11/17 09:48:20;;;;;;;21.27;3.10;;;;;;;11.39;100.00;98318.41;5058365;28;20028;-77
2022/11/17 09:50:46;;;;;;;19.33;2.10;;;;;;;11.51;100.00;98309.22;5056560;28;20044;-77
2022/11/17 09:53:23;;;;;;;14.60;2.42;;;;;;;11.61;100.00;98316.22;5041672;28;20035;-77
2022/11/17 09:55:50;;;;;;;18.23;3.03;;;;;;;11.69;100.00;98315.25;5093247;28;20040;-77
2022/11/17 09:58:52;;;;;;;18.33;3.03;;;;;;;11.80;100.00;98319.16;5078919;28;20029;-77
2022/11/17 10:01:19;;;;;;;21.02;2.67;;;;;;;11.95;100.00;98322.34;5084496;28;20027;-77
2022/11/17 10:03:46;;;;;;;16.20;3.35;;;;;;;12.07;100.00;98327.84;5095648;28;20051;-77
2022/11/17 10:06:21;;;;;;;17.15;3.05;;;;;;;12.19;100.00;98326.97;5058850;28;20029;-77
2022/11/17 10:08:57;;;;;;;15.32;2.95;;;;;;;12.29;100.00;98316.09;5057029;28;20097;-77
2022/11/17 10:11:30;;;;;;;13.75;2.75;;;;;;;12.39;100.00;98330.66;5071273;28;20021;-77
2022/11/17 10:14:11;;;;;;;24.40;2.40;;;;;;;12.46;100.00;98326.06;5064205;28;20093;-77
2022/11/17 10:16:37;;;;;;;12.30;2.42;;;;;;;12.50;100.00;98332.53;5074652;28;20058;-77
2022/11/17 10:19:19;;;;;;;18.88;2.85;;;;;;;12.54;100.00;98327.06;5057943;28;20036;-77
2022/11/17 10:21:47;;;;;;;18.45;2.63;;;;;;;12.55;100.00;98334.22;5074341;28;20056;-77
2022/11/17 10:24:41;;;;;;;13.75;2.10;;;;;;;12.57;100.00;98337.47;5020823;28;20053;-77
2022/11/17 10:27:16;;;;;;;16.15;2.35;;;;;;;12.58;100.00;98338.28;5064889;28;20078;-77
2022/11/17 10:29:50;;;;;;;15.15;2.10;;;;;;;12.60;100.00;98345.09;5074084;28;20033;-77
2022/11/17 10:32:15;;;;;;;16.85;2.20;;;;;;;12.56;100.00;98335.84;5042059;28;20044;-77
2022/11/17 10:34:41;;;;;;;12.35;2.00;;;;;;;12.56;100.00;98338.63;5075414;28;20024;-77
2022/11/17 10:37:12;;;;;;;18.73;3.20;;;;;;;12.53;100.00;98342.94;5074135;28;20480;-77
2022/11/17 10:39:39;;;;;;;20.08;3.33;;;;;;;12.53;100.00;98336.56;5074118;28;20029;-77
2022/11/17 10:42:21;;;;;;;15.77;2.10;;;;;;;12.52;100.00;98340.53;5054216;28;20118;-76
2022/11/17 10:44:50;;;;;;;14.18;1.80;;;;;;;12.54;100.00;98338.19;5075530;28;20132;-77
2022/11/17 10:47:38;;;;;;;12.50;1.70;;;;;;;12.56;100.00;98324.69;5057553;28;20032;-77
2022/11/17 10:50:14;;;;;;;13.07;1.80;;;;;;;12.57;100.00;98337.47;5062564;28;20033;-77
2022/11/17 10:52:40;;;;;;;11.57;1.80;;;;;;;12.60;100.00;98333.97;5074097;28;20111;-77
2022/11/17 10:55:25;;;;;;;14.90;2.15;;;;;;;12.63;100.00;98341.59;5040406;28;20039;-77
2022/11/17 10:58:19;;;;;;;12.23;1.90;;;;;;;12.65;100.00;98338.47;5094540;28;20029;-77
2022/11/17 11:00:54;;;;;;;14.02;1.65;;;;;;;12.74;100.00;98347.44;5072716;28;20048;-77
2022/11/17 11:03:22;;;;;;;14.00;1.60;;;;;;;12.80;100.00;98345.97;5072126;28;20604;-77
2022/11/17 11:06:00;;;;;;;9.52;1.75;;;;;;;12.86;100.00;98346.50;5084883;28;20121;-77
2022/11/17 11:08:33;;;;;;;11.07;1.50;;;;;;;12.93;100.00;98339.13;5066486;28;20477;-77
2022/11/17 11:10:58;;;;;;;8.38;1.42;;;;;;;13.03;100.00;98343.31;5053716;28;20044;-77
2022/11/17 11:13:31;;;;;;;10.00;1.40;;;;;;;13.11;100.00;98344.31;5052245;28;20032;-77
2022/11/17 11:15:56;;;;;;;;;;;;;;;13.23;100.00;98348.94;5075693;28;20037;-77
2022/11/17 11:18:22;;;;;;;12.55;1.92;;;;;;;13.33;100.00;98340.84;5071813;28;19931;-77
2022/11/17 11:21:06;;;;;;;10.95;1.58;;;;;;;13.45;100.00;98342.69;5023925;28;20032;-77
2022/11/17 11:23:51;;;;;;;11.23;1.50;;;;;;;13.55;100.00;98344.09;5072477;28;20032;-77
2022/11/17 11:26:45;;;;;;;8.43;1.25;;;;;;;13.75;100.00;98344.91;5107344;28;20170;-77
2022/11/17 11:29:53;;;;;;;6.85;1.27;;;;;;;13.86;100.00;98331.97;5037118;28;20228;-78
2022/11/17 11:32:21;;;;;;;10.52;1.65;;;;;;;14.53;100.00;98332.41;5039943;28;20060;-77
2022/11/17 11:35:28;;;;;;;5.93;1.10;;;;;;;14.18;100.00;98327.00;5075015;28;20093;-77
2022/11/17 11:38:15;;;;;;;7.07;1.13;;;;;;;14.16;100.00;98329.34;5059576;28;20129;-77
2022/11/17 11:40:43;;;;;;;7.57;1.20;;;;;;;14.15;100.00;98324.13;5072186;28;20035;-77
2022/11/17 11:43:27;;;;;;;7.03;1.30;;;;;;;14.14;100.00;98322.53;5041348;28;20103;-77
2022/11/17 11:46:23;;;;;;;5.47;0.80;;;;;;;14.15;100.00;98318.53;5056406;28;20078;-77
2022/11/17 11:48:48;;;;;;;7.63;1.27;;;;;;;14.11;100.00;98329.66;5075271;28;20157;-77
2022/11/17 11:51:18;;;;;;;8.55;1.30;;;;;;;14.13;100.00;98326.50;5077855;28;20057;-77
2022/11/17 11:53:51;;;;;;;8.15;1.58;;;;;;;14.12;100.00;98317.28;5070020;28;20025;-77
2022/11/17 11:56:37;;;;;;;7.82;1.17;;;;;;;14.13;100.00;98326.50;5081166;28;20036;-77
2022/11/17 11:59:20;;;;;;;7.68;1.27;;;;;;;14.13;100.00;98318.13;5075764;28;20051;-77
2022/11/17 12:02:09;;;;;;;6.93;1.10;;;;;;;14.11;100.00;98309.31;5075313;28;20029;-77
2022/11/17 12:05:02;;;;;;;4.70;1.10;;;;;;;14.16;100.00;98289.47;5080108;28;20033;-77
2022/11/17 12:07:38;;;;;;;8.10;0.98;;;;;;;14.17;100.00;98293.84;5063799;28;20028;-77
2022/11/17 12:10:03;;;;;;;6.90;1.10;;;;;;;14.19;100.00;98299.88;5076884;28;20040;-77
2022/11/17 12:12:36;;;;;;;9.25;1.50;;;;;;;14.19;100.00;98291.50;5077524;28;20066;-77
2022/11/17 12:15:29;;;;;;;10.90;1.25;;;;;;;14.18;100.00;98282.34;5076831;28;20159;-77
2022/11/17 12:17:58;;;;;;;2.95;0.57;;;;;;;14.26;100.00;98286.03;5059227;28;20051;-77
2022/11/17 12:20:54;;;;;;;8.05;1.20;;;;;;;14.31;100.00;98291.31;5074768;28;20124;-77
2022/11/17 12:23:34;;;;;;;4.50;0.65;;;;;;;14.36;100.00;98285.41;5059835;28;20036;-77
2022/11/17 12:26:00;;;;;;;5.95;1.05;;;;;;;14.41;100.00;98298.28;5077502;28;20029;-77
2022/11/17 12:28:35;;;;;;;4.18;1.00;;;;;;;14.46;100.00;98289.59;5059609;28;20476;-77